sensor_id;sensor_type;location;lat;lon;timestamp;temperature;humidity
2162;DHT22;1087;50.226;8.682;2022-10-31T00:01:16;14.50;99.90
2162;DHT22;1087;50.226;8.682;2022-10-31T00:03:42;14.50;99.90
2162;DHT22;1087;50.226;8.682;2022-10-31T00:06:07;14.50;99.90
2162;DHT22;1087;50.226;8.682;2022-10-31T00:08:33;14.50;99.90
2162;DHT22;1087;50.226;8.682;2022-10-31T00:10:58;14.50;99.90
2162;DHT22;1087;50.226;8.682;2022-10-31T00:13:24;14.50;99.90
2162;DHT22;1087;50.226;8.682;2022-10-31T00:15:49;14.50;99.90
2162;DHT22;1087;50.226;8.682;2022-10-31T00:18:15;14.40;99.90
2162;DHT22;1087;50.226;8.682;2022-10-31T00:20:40;14.50;99.90
2162;DHT22;1087;50.226;8.682;2022-10-31T00:23:06;14.50;99.90
2162;DHT22;1087;50.226;8.682;2022-10-31T00:25:37;14.50;99.90
2162;DHT22;1087;50.226;8.682;2022-10-31T00:28:04;14.40;99.90
2162;DHT22;1087;50.226;8.682;2022-10-31T00:30:30;14.40;99.90
2162;DHT22;1087;50.226;8.682;2022-10-31T00:32:55;14.40;99.90
2162;DHT22;1087;50.226;8.682;2022-10-31T00:35:21;14.40;99.90
2162;DHT22;1087;50.226;8.682;2022-10-31T00:37:46;14.30;99.90
2162;DHT22;1087;50.226;8.682;2022-10-31T00:40:12;14.30;99.90
2162;DHT22;1087;50.226;8.682;2022-10-31T00:42:39;14.20;99.90
2162;DHT22;1087;50.226;8.682;2022-10-31T00:45:05;14.20;99.90
2162;DHT22;1087;50.226;8.682;2022-10-31T00:47:30;14.10;99.90
2162;DHT22;1087;50.226;8.682;2022-10-31T00:49:56;14.20;99.90
2162;DHT22;1087;50.226;8.682;2022-10-31T00:52:21;14.20;99.90
2162;DHT22;1087;50.226;8.682;2022-10-31T00:54:47;14.20;99.90
2162;DHT22;1087;50.226;8.682;2022-10-31T00:57:12;14.20;99.90
2162;DHT22;1087;50.226;8.682;2022-10-31T00:59:38;14.20;99.90
2162;DHT22;1087;50.226;8.682;2022-10-31T01:02:03;14.30;99.90
2162;DHT22;1087;50.226;8.682;2022-10-31T01:04:29;14.20;99.90
2162;DHT22;1087;50.226;8.682;2022-10-31T01:06:54;14.30;99.90
2162;DHT22;1087;50.226;8.682;2022-10-31T01:09:20;14.30;99.90
2162;DHT22;1087;50.226;8.682;2022-10-31T01:11:45;14.30;99.90
2162;DHT22;1087;50.226;8.682;2022-10-31T01:14:11;14.30;99.90
2162;DHT22;1087;50.226;8.682;2022-10-31T01:16:36;14.30;99.90
2162;DHT22;1087;50.226;8.682;2022-10-31T01:19:02;14.30;99.90
2162;DHT22;1087;50.226;8.682;2022-10-31T01:21:28;14.20;99.90
2162;DHT22;1087;50.226;8.682;2022-10-31T01:23:54;14.20;99.90
2162;DHT22;1087;50.226;8.682;2022-10-31T01:26:26;14.20;99.90
2162;DHT22;1087;50.226;8.682;2022-10-31T01:28:57;14.10;99.90
2162;DHT22;1087;50.226;8.682;2022-10-31T01:31:26;14.10;99.90
2162;DHT22;1087;50.226;8.682;2022-10-31T01:33:53;14.10;99.90
2162;DHT22;1087;50.226;8.682;2022-10-31T01:36:30;14.00;99.90
2162;DHT22;1087;50.226;8.682;2022-10-31T01:38:59;14.00;99.90
2162;DHT22;1087;50.226;8.682;2022-10-31T01:41:31;14.00;99.90
2162;DHT22;1087;50.226;8.682;2022-10-31T01:43:58;14.00;99.90
2162;DHT22;1087;50.226;8.682;2022-10-31T01:46:31;14.00;99.90
2162;DHT22;1087;50.226;8.682;2022-10-31T01:49:00;14.00;99.90
2162;DHT22;1087;50.226;8.682;2022-10-31T01:51:30;14.00;99.90
2162;DHT22;1087;50.226;8.682;2022-10-31T01:54:02;14.00;99.90
2162;DHT22;1087;50.226;8.682;2022-10-31T01:56:28;14.00;99.90
2162;DHT22;1087;50.226;8.682;2022-10-31T01:58:54;14.00;99.90
2162;DHT22;1087;50.226;8.682;2022-10-31T02:01:21;14.00;99.90
2162;DHT22;1087;50.226;8.682;2022-10-31T02:03:47;14.00;99.90
2162;DHT22;1087;50.226;8.682;2022-10-31T02:09:05;14.00;99.90
2162;DHT22;1087;50.226;8.682;2022-10-31T02:11:32;13.90;99.90
2162;DHT22;1087;50.226;8.682;2022-10-31T02:14:00;13.90;99.90
2162;DHT22;1087;50.226;8.682;2022-10-31T02:16:26;13.90;99.90
2162;DHT22;1087;50.226;8.682;2022-10-31T02:18:52;14.00;99.90
2162;DHT22;1087;50.226;8.682;2022-10-31T02:26:51;14.00;99.90
2162;DHT22;1087;50.226;8.682;2022-10-31T02:29:37;14.00;99.90
2162;DHT22;1087;50.226;8.682;2022-10-31T02:32:46;13.90;99.90
2162;DHT22;1087;50.226;8.682;2022-10-31T02:46:26;14.00;99.90
2162;DHT22;1087;50.226;8.682;2022-10-31T02:48:55;14.00;99.90
2162;DHT22;1087;50.226;8.682;2022-10-31T02:51:22;14.00;99.90
2162;DHT22;1087;50.226;8.682;2022-10-31T02:53:48;14.00;99.90
2162;DHT22;1087;50.226;8.682;2022-10-31T02:56:16;14.00;99.90
2162;DHT22;1087;50.226;8.682;2022-10-31T02:58:49;14.00;99.90
2162;DHT22;1087;50.226;8.682;2022-10-31T03:11:52;13.90;99.90
2162;DHT22;1087;50.226;8.682;2022-10-31T03:14:31;13.90;99.90
2162;DHT22;1087;50.226;8.682;2022-10-31T03:17:00;13.90;99.90
2162;DHT22;1087;50.226;8.682;2022-10-31T03:19:41;13.90;99.90
2162;DHT22;1087;50.226;8.682;2022-10-31T03:22:21;13.90;99.90
2162;DHT22;1087;50.226;8.682;2022-10-31T03:24:48;13.80;99.90
2162;DHT22;1087;50.226;8.682;2022-10-31T03:27:20;13.90;99.90
2162;DHT22;1087;50.226;8.682;2022-10-31T03:29:49;13.90;99.90
2162;DHT22;1087;50.226;8.682;2022-10-31T03:32:23;13.90;99.90
2162;DHT22;1087;50.226;8.682;2022-10-31T03:34:50;13.80;99.90
2162;DHT22;1087;50.226;8.682;2022-10-31T03:37:19;13.80;99.90
2162;DHT22;1087;50.226;8.682;2022-10-31T03:39:46;13.80;99.90
2162;DHT22;1087;50.226;8.682;2022-10-31T03:42:15;13.80;99.90
2162;DHT22;1087;50.226;8.682;2022-10-31T03:44:46;13.80;99.90
2162;DHT22;1087;50.226;8.682;2022-10-31T03:47:12;13.80;99.90
2162;DHT22;1087;50.226;8.682;2022-10-31T03:49:38;13.70;99.90
2162;DHT22;1087;50.226;8.682;2022-10-31T03:55:17;13.70;99.90
2162;DHT22;1087;50.226;8.682;2022-10-31T03:57:53;13.80;99.90
2162;DHT22;1087;50.226;8.682;2022-10-31T04:00:21;13.70;99.90
2162;DHT22;1087;50.226;8.682;2022-10-31T04:02:57;13.70;99.90
2162;DHT22;1087;50.226;8.682;2022-10-31T04:05:24;13.70;99.90
2162;DHT22;1087;50.226;8.682;2022-10-31T04:07:54;13.70;99.90
2162;DHT22;1087;50.226;8.682;2022-10-31T04:10:21;13.60;99.90
2162;DHT22;1087;50.226;8.682;2022-10-31T04:12:53;13.70;99.90
2162;DHT22;1087;50.226;8.682;2022-10-31T04:15:21;13.60;99.90
2162;DHT22;1087;50.226;8.682;2022-10-31T04:17:49;13.60;99.90
2162;DHT22;1087;50.226;8.682;2022-10-31T04:20:17;13.60;99.90
2162;DHT22;1087;50.226;8.682;2022-10-31T04:22:43;13.60;99.90
2162;DHT22;1087;50.226;8.682;2022-10-31T04:25:08;13.60;99.90
2162;DHT22;1087;50.226;8.682;2022-10-31T04:27:34;13.60;99.90
2162;DHT22;1087;50.226;8.682;2022-10-31T04:29:59;13.60;99.90
2162;DHT22;1087;50.226;8.682;2022-10-31T04:32:25;13.60;99.90
2162;DHT22;1087;50.226;8.682;2022-10-31T04:34:51;13.60;99.90
2162;DHT22;1087;50.226;8.682;2022-10-31T04:37:16;13.50;99.90
2162;DHT22;1087;50.226;8.682;2022-10-31T04:39:42;13.50;99.90
2162;DHT22;1087;50.226;8.682;2022-10-31T04:42:07;13.50;99.90
2162;DHT22;1087;50.226;8.682;2022-10-31T04:44:33;13.50;99.90
2162;DHT22;1087;50.226;8.682;2022-10-31T04:46:58;13.50;99.90
2162;DHT22;1087;50.226;8.682;2022-10-31T04:49:24;13.50;99.90
2162;DHT22;1087;50.226;8.682;2022-10-31T04:51:49;13.50;99.90
2162;DHT22;1087;50.226;8.682;2022-10-31T04:54:15;13.50;99.90
2162;DHT22;1087;50.226;8.682;2022-10-31T04:56:40;13.50;99.90
2162;DHT22;1087;50.226;8.682;2022-10-31T04:59:06;13.50;99.90
2162;DHT22;1087;50.226;8.682;2022-10-31T05:01:31;13.50;99.90
2162;DHT22;1087;50.226;8.682;2022-10-31T05:03:57;13.60;99.90
2162;DHT22;1087;50.226;8.682;2022-10-31T05:06:22;13.60;99.90
2162;DHT22;1087;50.226;8.682;2022-10-31T05:08:48;13.60;99.90
2162;DHT22;1087;50.226;8.682;2022-10-31T05:11:13;13.60;99.90
2162;DHT22;1087;50.226;8.682;2022-10-31T05:13:39;13.60;99.90
2162;DHT22;1087;50.226;8.682;2022-10-31T05:16:04;13.50;99.90
2162;DHT22;1087;50.226;8.682;2022-10-31T05:18:30;13.50;99.90
2162;DHT22;1087;50.226;8.682;2022-10-31T05:20:55;13.50;99.90
2162;DHT22;1087;50.226;8.682;2022-10-31T05:23:21;13.50;99.90
2162;DHT22;1087;50.226;8.682;2022-10-31T05:25:46;13.40;99.90
2162;DHT22;1087;50.226;8.682;2022-10-31T05:28:12;13.50;99.90
2162;DHT22;1087;50.226;8.682;2022-10-31T05:30:37;13.50;99.90
2162;DHT22;1087;50.226;8.682;2022-10-31T05:33:03;13.40;99.90
2162;DHT22;1087;50.226;8.682;2022-10-31T05:35:30;13.40;99.90
2162;DHT22;1087;50.226;8.682;2022-10-31T05:37:57;13.40;99.90
2162;DHT22;1087;50.226;8.682;2022-10-31T05:40:24;13.40;99.90
2162;DHT22;1087;50.226;8.682;2022-10-31T05:42:54;13.40;99.90
2162;DHT22;1087;50.226;8.682;2022-10-31T05:45:21;13.40;99.90
2162;DHT22;1087;50.226;8.682;2022-10-31T05:50:16;13.50;99.90
2162;DHT22;1087;50.226;8.682;2022-10-31T05:52:41;13.40;99.90
2162;DHT22;1087;50.226;8.682;2022-10-31T05:55:07;13.40;99.90
2162;DHT22;1087;50.226;8.682;2022-10-31T05:57:33;13.40;99.90
2162;DHT22;1087;50.226;8.682;2022-10-31T05:59:59;13.40;99.90
2162;DHT22;1087;50.226;8.682;2022-10-31T06:02:24;13.40;99.90
2162;DHT22;1087;50.226;8.682;2022-10-31T06:04:52;13.40;99.90
2162;DHT22;1087;50.226;8.682;2022-10-31T06:07:17;13.40;99.90
2162;DHT22;1087;50.226;8.682;2022-10-31T06:09:43;13.40;99.90
2162;DHT22;1087;50.226;8.682;2022-10-31T06:12:08;13.30;99.90
2162;DHT22;1087;50.226;8.682;2022-10-31T06:14:34;13.40;99.90
2162;DHT22;1087;50.226;8.682;2022-10-31T06:16:59;13.30;99.90
2162;DHT22;1087;50.226;8.682;2022-10-31T06:19:25;13.30;99.90
2162;DHT22;1087;50.226;8.682;2022-10-31T06:21:50;13.30;99.90
2162;DHT22;1087;50.226;8.682;2022-10-31T06:24:16;13.30;99.90
2162;DHT22;1087;50.226;8.682;2022-10-31T06:26:41;13.30;99.90
2162;DHT22;1087;50.226;8.682;2022-10-31T06:29:07;13.30;99.90
2162;DHT22;1087;50.226;8.682;2022-10-31T06:31:32;13.30;99.90
2162;DHT22;1087;50.226;8.682;2022-10-31T06:33:58;13.30;99.90
2162;DHT22;1087;50.226;8.682;2022-10-31T06:36:23;13.30;99.90
2162;DHT22;1087;50.226;8.682;2022-10-31T06:38:49;13.30;99.90
2162;DHT22;1087;50.226;8.682;2022-10-31T06:41:14;13.20;99.90
2162;DHT22;1087;50.226;8.682;2022-10-31T06:43:40;13.20;99.90
2162;DHT22;1087;50.226;8.682;2022-10-31T06:46:06;13.20;99.90
2162;DHT22;1087;50.226;8.682;2022-10-31T06:48:32;13.20;99.90
2162;DHT22;1087;50.226;8.682;2022-10-31T06:51:01;13.20;99.90
2162;DHT22;1087;50.226;8.682;2022-10-31T06:53:27;13.20;99.90
2162;DHT22;1087;50.226;8.682;2022-10-31T06:55:55;13.20;99.90
2162;DHT22;1087;50.226;8.682;2022-10-31T06:58:21;13.20;99.90
2162;DHT22;1087;50.226;8.682;2022-10-31T07:00:48;13.20;99.90
2162;DHT22;1087;50.226;8.682;2022-10-31T07:03:14;13.20;99.90
2162;DHT22;1087;50.226;8.682;2022-10-31T07:05:41;13.30;99.90
2162;DHT22;1087;50.226;8.682;2022-10-31T07:08:11;13.30;99.90
2162;DHT22;1087;50.226;8.682;2022-10-31T07:10:38;13.30;99.90
2162;DHT22;1087;50.226;8.682;2022-10-31T07:13:06;13.40;99.90
2162;DHT22;1087;50.226;8.682;2022-10-31T07:15:36;13.40;99.90
2162;DHT22;1087;50.226;8.682;2022-10-31T07:18:07;13.40;99.90
2162;DHT22;1087;50.226;8.682;2022-10-31T07:20:33;13.40;99.90
2162;DHT22;1087;50.226;8.682;2022-10-31T07:22:58;13.50;99.90
2162;DHT22;1087;50.226;8.682;2022-10-31T07:25:24;13.50;99.90
2162;DHT22;1087;50.226;8.682;2022-10-31T07:27:50;13.40;99.90
2162;DHT22;1087;50.226;8.682;2022-10-31T07:30:16;13.40;99.90
2162;DHT22;1087;50.226;8.682;2022-10-31T07:32:49;13.40;99.90
2162;DHT22;1087;50.226;8.682;2022-10-31T07:35:19;13.40;99.90
2162;DHT22;1087;50.226;8.682;2022-10-31T07:37:46;13.40;99.90
2162;DHT22;1087;50.226;8.682;2022-10-31T07:40:12;13.30;99.90
2162;DHT22;1087;50.226;8.682;2022-10-31T07:42:39;13.30;99.90
2162;DHT22;1087;50.226;8.682;2022-10-31T07:45:06;13.00;99.90
2162;DHT22;1087;50.226;8.682;2022-10-31T07:47:41;12.90;99.90
2162;DHT22;1087;50.226;8.682;2022-10-31T07:50:09;13.00;99.90
2162;DHT22;1087;50.226;8.682;2022-10-31T07:52:35;13.10;99.90
2162;DHT22;1087;50.226;8.682;2022-10-31T07:55:00;13.10;99.90
2162;DHT22;1087;50.226;8.682;2022-10-31T07:57:26;13.20;99.90
2162;DHT22;1087;50.226;8.682;2022-10-31T07:59:52;13.40;99.90
2162;DHT22;1087;50.226;8.682;2022-10-31T08:02:17;13.50;99.90
2162;DHT22;1087;50.226;8.682;2022-10-31T08:04:43;13.50;99.90
2162;DHT22;1087;50.226;8.682;2022-10-31T08:07:08;13.60;99.90
2162;DHT22;1087;50.226;8.682;2022-10-31T08:09:34;13.80;99.90
2162;DHT22;1087;50.226;8.682;2022-10-31T08:11:59;13.80;99.90
2162;DHT22;1087;50.226;8.682;2022-10-31T08:14:26;13.80;99.90
2162;DHT22;1087;50.226;8.682;2022-10-31T08:16:52;13.90;99.90
2162;DHT22;1087;50.226;8.682;2022-10-31T08:19:18;13.80;99.90
2162;DHT22;1087;50.226;8.682;2022-10-31T08:21:44;13.80;99.90
2162;DHT22;1087;50.226;8.682;2022-10-31T08:24:09;13.70;99.90
2162;DHT22;1087;50.226;8.682;2022-10-31T08:26:35;13.90;99.90
2162;DHT22;1087;50.226;8.682;2022-10-31T08:29:00;13.90;99.90
2162;DHT22;1087;50.226;8.682;2022-10-31T08:31:27;14.00;99.90
2162;DHT22;1087;50.226;8.682;2022-10-31T08:33:53;14.00;99.90
2162;DHT22;1087;50.226;8.682;2022-10-31T08:36:20;13.90;99.90
2162;DHT22;1087;50.226;8.682;2022-10-31T08:38:46;14.00;99.90
2162;DHT22;1087;50.226;8.682;2022-10-31T08:41:12;14.10;99.90
2162;DHT22;1087;50.226;8.682;2022-10-31T08:43:37;14.10;99.90
2162;DHT22;1087;50.226;8.682;2022-10-31T08:46:03;14.20;99.90
2162;DHT22;1087;50.226;8.682;2022-10-31T08:48:29;14.20;99.90
2162;DHT22;1087;50.226;8.682;2022-10-31T08:50:57;14.20;99.90
2162;DHT22;1087;50.226;8.682;2022-10-31T08:53:26;14.20;99.90
2162;DHT22;1087;50.226;8.682;2022-10-31T08:55:54;14.30;99.90
2162;DHT22;1087;50.226;8.682;2022-10-31T08:58:20;14.10;99.90
2162;DHT22;1087;50.226;8.682;2022-10-31T09:00:48;13.70;99.90
2162;DHT22;1087;50.226;8.682;2022-10-31T09:03:25;13.80;99.90
2162;DHT22;1087;50.226;8.682;2022-10-31T09:05:54;13.90;99.90
2162;DHT22;1087;50.226;8.682;2022-10-31T09:08:20;14.00;99.90
2162;DHT22;1087;50.226;8.682;2022-10-31T09:10:46;14.10;99.90
2162;DHT22;1087;50.226;8.682;2022-10-31T09:13:14;14.10;99.90
2162;DHT22;1087;50.226;8.682;2022-10-31T09:15:41;14.10;99.90
2162;DHT22;1087;50.226;8.682;2022-10-31T09:18:08;14.00;99.90
2162;DHT22;1087;50.226;8.682;2022-10-31T09:20:35;14.00;99.90
2162;DHT22;1087;50.226;8.682;2022-10-31T09:23:05;13.90;99.90
2162;DHT22;1087;50.226;8.682;2022-10-31T09:25:33;14.10;99.90
2162;DHT22;1087;50.226;8.682;2022-10-31T09:28:00;14.30;99.90
2162;DHT22;1087;50.226;8.682;2022-10-31T09:30:27;14.20;99.90
2162;DHT22;1087;50.226;8.682;2022-10-31T09:33:00;14.30;99.90
2162;DHT22;1087;50.226;8.682;2022-10-31T09:35:26;14.40;99.90
2162;DHT22;1087;50.226;8.682;2022-10-31T09:38:00;14.50;99.90
2162;DHT22;1087;50.226;8.682;2022-10-31T09:40:44;14.60;99.90
2162;DHT22;1087;50.226;8.682;2022-10-31T09:43:22;14.80;99.90
2162;DHT22;1087;50.226;8.682;2022-10-31T09:46:07;14.70;99.90
2162;DHT22;1087;50.226;8.682;2022-10-31T09:51:16;14.80;99.90
2162;DHT22;1087;50.226;8.682;2022-10-31T09:53:59;14.80;99.90
2162;DHT22;1087;50.226;8.682;2022-10-31T09:56:28;14.90;99.90
2162;DHT22;1087;50.226;8.682;2022-10-31T09:58:56;14.90;99.90
2162;DHT22;1087;50.226;8.682;2022-10-31T10:01:38;15.00;99.90
2162;DHT22;1087;50.226;8.682;2022-10-31T10:04:24;15.00;99.90
2162;DHT22;1087;50.226;8.682;2022-10-31T10:06:52;15.00;99.90
2162;DHT22;1087;50.226;8.682;2022-10-31T10:09:22;15.00;99.90
2162;DHT22;1087;50.226;8.682;2022-10-31T10:11:54;15.10;99.90
2162;DHT22;1087;50.226;8.682;2022-10-31T10:14:29;15.10;99.90
2162;DHT22;1087;50.226;8.682;2022-10-31T10:25:15;15.10;99.90
2162;DHT22;1087;50.226;8.682;2022-10-31T10:28:02;15.20;99.90
2162;DHT22;1087;50.226;8.682;2022-10-31T10:33:26;15.30;99.90
2162;DHT22;1087;50.226;8.682;2022-10-31T10:35:59;15.30;99.90
2162;DHT22;1087;50.226;8.682;2022-10-31T10:38:51;15.40;99.90
2162;DHT22;1087;50.226;8.682;2022-10-31T10:41:20;15.50;99.90
2162;DHT22;1087;50.226;8.682;2022-10-31T10:43:48;15.50;99.90
2162;DHT22;1087;50.226;8.682;2022-10-31T10:46:16;15.50;99.90
2162;DHT22;1087;50.226;8.682;2022-10-31T10:49:18;15.60;99.90
2162;DHT22;1087;50.226;8.682;2022-10-31T10:54:42;15.60;99.90
2162;DHT22;1087;50.226;8.682;2022-10-31T10:57:44;15.60;99.90
2162;DHT22;1087;50.226;8.682;2022-10-31T11:00:19;15.60;99.90
2162;DHT22;1087;50.226;8.682;2022-10-31T11:02:45;15.60;99.90
2162;DHT22;1087;50.226;8.682;2022-10-31T11:07:50;15.70;99.90
2162;DHT22;1087;50.226;8.682;2022-10-31T11:10:16;15.80;99.90
2162;DHT22;1087;50.226;8.682;2022-10-31T11:13:17;15.70;99.90
2162;DHT22;1087;50.226;8.682;2022-10-31T11:16:03;15.80;99.90
2162;DHT22;1087;50.226;8.682;2022-10-31T11:18:39;15.90;99.90
2162;DHT22;1087;50.226;8.682;2022-10-31T11:21:05;15.80;99.90
2162;DHT22;1087;50.226;8.682;2022-10-31T11:23:32;15.80;99.90
2162;DHT22;1087;50.226;8.682;2022-10-31T11:26:06;15.80;99.90
2162;DHT22;1087;50.226;8.682;2022-10-31T11:28:33;15.80;99.90
2162;DHT22;1087;50.226;8.682;2022-10-31T11:31:05;15.90;99.90
2162;DHT22;1087;50.226;8.682;2022-10-31T11:33:37;15.90;99.90
2162;DHT22;1087;50.226;8.682;2022-10-31T11:36:20;15.90;99.90
2162;DHT22;1087;50.226;8.682;2022-10-31T11:38:46;15.90;99.90
2162;DHT22;1087;50.226;8.682;2022-10-31T11:41:14;16.00;99.90
2162;DHT22;1087;50.226;8.682;2022-10-31T11:43:50;16.00;99.90
2162;DHT22;1087;50.226;8.682;2022-10-31T11:46:21;16.00;99.90
2162;DHT22;1087;50.226;8.682;2022-10-31T11:48:52;16.00;99.90
2162;DHT22;1087;50.226;8.682;2022-10-31T11:51:29;16.00;99.90
2162;DHT22;1087;50.226;8.682;2022-10-31T11:53:58;16.00;99.90
2162;DHT22;1087;50.226;8.682;2022-10-31T11:56:24;16.00;99.90
2162;DHT22;1087;50.226;8.682;2022-10-31T11:58:57;16.10;99.90
2162;DHT22;1087;50.226;8.682;2022-10-31T12:01:29;16.20;99.90
2162;DHT22;1087;50.226;8.682;2022-10-31T12:04:07;16.20;99.90
2162;DHT22;1087;50.226;8.682;2022-10-31T12:06:34;16.30;99.90
2162;DHT22;1087;50.226;8.682;2022-10-31T12:09:00;16.30;99.90
2162;DHT22;1087;50.226;8.682;2022-10-31T12:12:22;16.40;99.90
2162;DHT22;1087;50.226;8.682;2022-10-31T12:15:11;16.50;99.90
2162;DHT22;1087;50.226;8.682;2022-10-31T12:17:57;16.50;99.90
2162;DHT22;1087;50.226;8.682;2022-10-31T12:20:40;16.50;99.90
2162;DHT22;1087;50.226;8.682;2022-10-31T12:23:21;16.60;99.90
2162;DHT22;1087;50.226;8.682;2022-10-31T12:31:33;16.60;99.90
2162;DHT22;1087;50.226;8.682;2022-10-31T12:36:50;16.70;99.90
2162;DHT22;1087;50.226;8.682;2022-10-31T12:39:41;16.70;99.90
2162;DHT22;1087;50.226;8.682;2022-10-31T12:42:41;16.70;99.90
2162;DHT22;1087;50.226;8.682;2022-10-31T12:45:11;16.80;99.90
2162;DHT22;1087;50.226;8.682;2022-10-31T12:51:02;16.80;99.90
2162;DHT22;1087;50.226;8.682;2022-10-31T12:53:45;16.80;99.90
2162;DHT22;1087;50.226;8.682;2022-10-31T12:56:30;16.80;99.90
2162;DHT22;1087;50.226;8.682;2022-10-31T12:59:17;16.90;99.90
2162;DHT22;1087;50.226;8.682;2022-10-31T13:07:28;17.10;99.90
2162;DHT22;1087;50.226;8.682;2022-10-31T13:12:34;17.20;99.90
2162;DHT22;1087;50.226;8.682;2022-10-31T13:15:05;17.20;99.90
2162;DHT22;1087;50.226;8.682;2022-10-31T13:17:43;17.20;99.90
2162;DHT22;1087;50.226;8.682;2022-10-31T13:20:20;17.20;99.90
2162;DHT22;1087;50.226;8.682;2022-10-31T13:22:52;17.30;99.90
2162;DHT22;1087;50.226;8.682;2022-10-31T13:25:28;17.30;99.90
2162;DHT22;1087;50.226;8.682;2022-10-31T13:28:03;17.30;99.90
2162;DHT22;1087;50.226;8.682;2022-10-31T13:30:33;17.40;99.90
2162;DHT22;1087;50.226;8.682;2022-10-31T13:33:15;17.30;99.90
2162;DHT22;1087;50.226;8.682;2022-10-31T13:41:55;17.20;99.90
2162;DHT22;1087;50.226;8.682;2022-10-31T13:44:26;17.20;99.90
2162;DHT22;1087;50.226;8.682;2022-10-31T13:46:54;17.30;99.90
2162;DHT22;1087;50.226;8.682;2022-10-31T13:54:35;17.30;99.90
2162;DHT22;1087;50.226;8.682;2022-10-31T13:57:01;17.20;99.90
2162;DHT22;1087;50.226;8.682;2022-10-31T13:59:29;17.30;99.90
2162;DHT22;1087;50.226;8.682;2022-10-31T14:02:02;17.30;99.90
2162;DHT22;1087;50.226;8.682;2022-10-31T14:04:48;17.20;99.90
2162;DHT22;1087;50.226;8.682;2022-10-31T14:07:16;17.20;99.90
2162;DHT22;1087;50.226;8.682;2022-10-31T14:10:05;17.20;99.90
2162;DHT22;1087;50.226;8.682;2022-10-31T14:12:43;17.20;99.90
2162;DHT22;1087;50.226;8.682;2022-10-31T14:15:23;17.20;99.90
2162;DHT22;1087;50.226;8.682;2022-10-31T14:17:55;17.20;99.90
2162;DHT22;1087;50.226;8.682;2022-10-31T14:22:56;17.10;99.90
2162;DHT22;1087;50.226;8.682;2022-10-31T14:25:33;17.10;99.90
2162;DHT22;1087;50.226;8.682;2022-10-31T14:28:02;17.20;99.90
2162;DHT22;1087;50.226;8.682;2022-10-31T14:30:30;17.30;99.90
2162;DHT22;1087;50.226;8.682;2022-10-31T14:33:02;17.40;99.90
2162;DHT22;1087;50.226;8.682;2022-10-31T14:35:46;17.50;99.90
2162;DHT22;1087;50.226;8.682;2022-10-31T14:38:24;17.50;99.90
2162;DHT22;1087;50.226;8.682;2022-10-31T14:51:51;17.20;99.90
2162;DHT22;1087;50.226;8.682;2022-10-31T14:54:27;17.20;99.90
2162;DHT22;1087;50.226;8.682;2022-10-31T14:56:59;17.20;99.90
2162;DHT22;1087;50.226;8.682;2022-10-31T14:59:30;17.10;99.90
2162;DHT22;1087;50.226;8.682;2022-10-31T15:02:07;17.20;99.90
2162;DHT22;1087;50.226;8.682;2022-10-31T15:04:36;17.20;99.90
2162;DHT22;1087;50.226;8.682;2022-10-31T15:07:15;17.20;99.90
2162;DHT22;1087;50.226;8.682;2022-10-31T15:09:42;17.20;99.90
2162;DHT22;1087;50.226;8.682;2022-10-31T15:12:30;17.20;99.90
2162;DHT22;1087;50.226;8.682;2022-10-31T15:14:56;17.20;99.90
2162;DHT22;1087;50.226;8.682;2022-10-31T15:17:24;17.20;99.90
2162;DHT22;1087;50.226;8.682;2022-10-31T15:19:51;17.20;99.90
2162;DHT22;1087;50.226;8.682;2022-10-31T15:22:19;17.20;99.90
2162;DHT22;1087;50.226;8.682;2022-10-31T15:24:47;17.20;99.90
2162;DHT22;1087;50.226;8.682;2022-10-31T15:27:15;17.20;99.90
2162;DHT22;1087;50.226;8.682;2022-10-31T15:29:52;17.20;99.90
2162;DHT22;1087;50.226;8.682;2022-10-31T15:32:23;17.20;99.90
2162;DHT22;1087;50.226;8.682;2022-10-31T15:34:50;17.20;99.90
2162;DHT22;1087;50.226;8.682;2022-10-31T15:37:19;17.20;99.90
2162;DHT22;1087;50.226;8.682;2022-10-31T15:39:46;17.20;99.90
2162;DHT22;1087;50.226;8.682;2022-10-31T15:42:39;17.20;99.90
2162;DHT22;1087;50.226;8.682;2022-10-31T15:45:19;17.20;99.90
2162;DHT22;1087;50.226;8.682;2022-10-31T15:48:12;17.20;99.90
2162;DHT22;1087;50.226;8.682;2022-10-31T15:50:40;17.20;99.90
2162;DHT22;1087;50.226;8.682;2022-10-31T15:53:17;17.20;99.90
2162;DHT22;1087;50.226;8.682;2022-10-31T15:56:04;17.20;99.90
2162;DHT22;1087;50.226;8.682;2022-10-31T15:58:31;17.20;99.90
2162;DHT22;1087;50.226;8.682;2022-10-31T16:01:18;17.20;99.90
2162;DHT22;1087;50.226;8.682;2022-10-31T16:03:44;17.20;99.90
2162;DHT22;1087;50.226;8.682;2022-10-31T16:06:21;17.20;99.90
2162;DHT22;1087;50.226;8.682;2022-10-31T16:08:48;17.20;99.90
2162;DHT22;1087;50.226;8.682;2022-10-31T16:11:35;17.20;99.90
2162;DHT22;1087;50.226;8.682;2022-10-31T16:16:48;17.20;99.90
2162;DHT22;1087;50.226;8.682;2022-10-31T16:19:26;17.20;99.90
2162;DHT22;1087;50.226;8.682;2022-10-31T16:22:05;17.20;99.90
2162;DHT22;1087;50.226;8.682;2022-10-31T16:24:33;17.20;99.90
2162;DHT22;1087;50.226;8.682;2022-10-31T16:27:06;17.10;99.90
2162;DHT22;1087;50.226;8.682;2022-10-31T16:29:46;17.20;99.90
2162;DHT22;1087;50.226;8.682;2022-10-31T16:32:34;17.10;99.90
2162;DHT22;1087;50.226;8.682;2022-10-31T16:37:26;17.10;99.90
2162;DHT22;1087;50.226;8.682;2022-10-31T16:39:51;17.10;99.90
2162;DHT22;1087;50.226;8.682;2022-10-31T16:42:17;17.10;99.90
2162;DHT22;1087;50.226;8.682;2022-10-31T16:44:44;17.00;99.90
2162;DHT22;1087;50.226;8.682;2022-10-31T16:47:13;16.90;99.90
2162;DHT22;1087;50.226;8.682;2022-10-31T16:49:40;16.90;99.90
2162;DHT22;1087;50.226;8.682;2022-10-31T16:52:06;16.90;99.90
2162;DHT22;1087;50.226;8.682;2022-10-31T16:54:31;16.80;99.90
2162;DHT22;1087;50.226;8.682;2022-10-31T16:56:59;16.80;99.90
2162;DHT22;1087;50.226;8.682;2022-10-31T16:59:25;16.90;99.90
2162;DHT22;1087;50.226;8.682;2022-10-31T17:01:51;16.90;99.90
2162;DHT22;1087;50.226;8.682;2022-10-31T17:04:17;16.90;99.90
2162;DHT22;1087;50.226;8.682;2022-10-31T17:06:42;16.80;99.90
2162;DHT22;1087;50.226;8.682;2022-10-31T17:09:08;16.70;99.90
2162;DHT22;1087;50.226;8.682;2022-10-31T17:11:34;16.60;99.90
2162;DHT22;1087;50.226;8.682;2022-10-31T17:14:00;16.50;99.90
2162;DHT22;1087;50.226;8.682;2022-10-31T17:16:26;16.60;99.90
2162;DHT22;1087;50.226;8.682;2022-10-31T17:18:52;16.70;99.90
2162;DHT22;1087;50.226;8.682;2022-10-31T17:21:20;16.70;99.90
2162;DHT22;1087;50.226;8.682;2022-10-31T17:23:48;16.80;99.90
2162;DHT22;1087;50.226;8.682;2022-10-31T17:26:13;16.80;99.90
2162;DHT22;1087;50.226;8.682;2022-10-31T17:28:39;16.80;99.90
2162;DHT22;1087;50.226;8.682;2022-10-31T17:31:05;16.90;99.90
2162;DHT22;1087;50.226;8.682;2022-10-31T17:33:30;16.90;99.90
2162;DHT22;1087;50.226;8.682;2022-10-31T17:35:56;16.90;99.90
2162;DHT22;1087;50.226;8.682;2022-10-31T17:38:22;16.90;99.90
2162;DHT22;1087;50.226;8.682;2022-10-31T17:40:47;16.90;99.90
2162;DHT22;1087;50.226;8.682;2022-10-31T17:43:13;16.90;99.90
2162;DHT22;1087;50.226;8.682;2022-10-31T17:45:40;16.90;99.90
2162;DHT22;1087;50.226;8.682;2022-10-31T17:48:08;16.90;99.90
2162;DHT22;1087;50.226;8.682;2022-10-31T17:50:35;16.90;99.90
2162;DHT22;1087;50.226;8.682;2022-10-31T17:53:00;16.80;99.90
2162;DHT22;1087;50.226;8.682;2022-10-31T17:55:26;16.80;99.90
2162;DHT22;1087;50.226;8.682;2022-10-31T17:57:51;16.80;99.90
2162;DHT22;1087;50.226;8.682;2022-10-31T18:00:18;16.80;99.90
2162;DHT22;1087;50.226;8.682;2022-10-31T18:02:49;16.80;99.90
2162;DHT22;1087;50.226;8.682;2022-10-31T18:05:14;16.80;99.90